Time;durP1;ratioP1;P1;durP2;ratioP2;P2;SDS_P1;SDS_P2;PMS_P1;PMS_P2;Temp;Humidity;BMP_temperature;BMP_pressure;BME280_temperature;BME280_humidity;BME280_pressure;Samples;Min_cycle;Max_cycle;Signal;HPM_P1;HPM_P2
2022/04/25 00:00:16;;;;;;;;;;;8.10;84.60;;;;;;6191255;23;19916;-79
2022/04/25 00:02:50;;;;;;;;;;;8.30;85.00;;;;;;6190602;23;19916;-80
2022/04/25 00:05:41;;;;;;;;;;;8.00;84.30;;;;;;6166302;23;19919;-81
2022/04/25 00:08:17;;;;;;;;;;;7.90;85.50;;;;;;6166222;23;20234;-80
2022/04/25 00:10:46;;;;;;;;;;;8.00;84.80;;;;;;6167368;23;19994;-80
2022/04/25 00:13:13;;;;;;;;;;;8.00;84.90;;;;;;6190682;23;19923;-80
2022/04/25 00:16:05;;;;;;;;;;;7.80;84.90;;;;;;6191073;23;19920;-80
2022/04/25 00:18:33;;;;;;;;;;;7.90;84.90;;;;;;6191450;23;19916;-79
2022/04/25 00:21:11;;;;;;;;;;;8.10;84.80;;;;;;6190590;23;19923;-80
2022/04/25 00:23:44;;;;;;;;;;;8.10;84.60;;;;;;6190368;23;19916;-80
2022/04/25 00:26:13;;;;;;;;;;;8.20;84.20;;;;;;6191200;23;19990;-81
2022/04/25 00:28:49;;;;;;;;;;;8.20;84.10;;;;;;6190591;23;19916;-81
2022/04/25 00:31:23;;;;;;;;;;;8.10;83.40;;;;;;6217954;23;19916;-80
2022/04/25 00:33:51;;;;;;;;;;;8.70;83.70;;;;;;6164655;23;19916;-80
2022/04/25 00:36:20;;;;;;;;;;;8.00;83.40;;;;;;6166145;23;19922;-79
2022/04/25 00:38:47;;;;;;;;;;;8.20;83.40;;;;;;6165938;23;19918;-79
2022/04/25 00:41:12;;;;;;;;;;;8.20;83.40;;;;;;6191211;23;19915;-80
2022/04/25 00:43:47;;;;;;;;;;;8.30;83.20;;;;;;6190743;23;19958;-80
2022/04/25 00:46:27;;;;;;;;;;;8.30;83.00;;;;;;6190706;23;19951;-80
2022/04/25 00:48:58;;;;;;;;;;;8.30;83.40;;;;;;6168540;23;20339;-81
2022/04/25 00:51:29;;;;;;;;;;;8.30;83.10;;;;;;6175120;23;19918;-76
2022/04/25 00:54:02;;;;;;;;;;;8.10;83.30;;;;;;6190413;23;19923;-75
2022/04/25 00:56:28;;;;;;;;;;;8.60;84.30;;;;;;6201821;23;20299;-80
2022/04/25 00:59:15;;;;;;;;;;;8.40;83.80;;;;;;6187047;23;19942;-79
2022/04/25 01:02:03;;;;;;;;;;;8.30;83.60;;;;;;6190854;23;19923;-80
2022/04/25 01:04:29;;;;;;;;;;;8.40;83.80;;;;;;6190075;23;20364;-80
2022/04/25 01:06:57;;;;;;;;;;;8.60;83.80;;;;;;6190285;23;19947;-80
2022/04/25 01:09:26;;;;;;;;;;;8.40;83.70;;;;;;6165641;23;19912;-80
2022/04/25 01:11:58;;;;;;;;;;;8.40;83.70;;;;;;6166409;23;19918;-79
2022/04/25 01:14:26;;;;;;;;;;;8.50;83.40;;;;;;6164136;23;19951;-80
2022/04/25 01:16:55;;;;;;;;;;;8.70;83.00;;;;;;6166239;23;20046;-80
2022/04/25 01:19:23;;;;;;;;;;;8.40;82.60;;;;;;6165555;23;20329;-79
2022/04/25 01:22:05;;;;;;;;;;;8.40;82.50;;;;;;6189113;23;19912;-80
2022/04/25 01:27:31;;;;;;;;;;;8.40;83.00;;;;;;6190220;23;20325;-80
2022/04/25 01:30:08;;;;;;;;;;;8.40;82.90;;;;;;6165659;23;20215;-80
2022/04/25 01:32:39;;;;;;;;;;;8.30;83.30;;;;;;6165472;23;19912;-80
2022/04/25 01:35:11;;;;;;;;;;;8.40;83.60;;;;;;6164387;23;19919;-79
2022/04/25 01:37:36;;;;;;;;;;;8.10;83.30;;;;;;6190187;23;19972;-79
2022/04/25 01:40:24;;;;;;;;;;;8.40;83.80;;;;;;6190233;23;19919;-79
2022/04/25 01:42:49;;;;;;;;;;;8.40;84.10;;;;;;6190260;23;19938;-79
2022/04/25 01:45:20;;;;;;;;;;;8.30;83.00;;;;;;6189547;23;19921;-80
2022/04/25 01:47:56;;;;;;;;;;;8.30;83.10;;;;;;6165586;23;19912;-79
2022/04/25 01:50:25;;;;;;;;;;;8.30;83.10;;;;;;6190183;23;19970;-79
2022/04/25 01:52:51;;;;;;;;;;;8.30;82.70;;;;;;6190330;23;19963;-80
2022/04/25 01:55:22;;;;;;;;;;;8.30;82.50;;;;;;6189704;23;19916;-80
2022/04/25 01:57:53;;;;;;;;;;;8.20;82.40;;;;;;6189654;23;20295;-80
2022/04/25 02:00:26;;;;;;;;;;;8.30;82.80;;;;;;6165733;23;19966;-80
2022/04/25 02:03:14;;;;;;;;;;;8.20;83.10;;;;;;6190164;23;19911;-80
2022/04/25 02:05:51;;;;;;;;;;;8.40;82.50;;;;;;6164303;23;19918;-79
2022/04/25 02:08:19;;;;;;;;;;;8.20;81.90;;;;;;6190467;23;19911;-79
2022/04/25 02:11:19;;;;;;;;;;;8.20;82.10;;;;;;6190115;23;20215;-80
2022/04/25 02:13:41;;;;;;;;;;;8.30;81.90;;;;;;6193329;23;19915;-81
2022/04/25 02:16:11;;;;;;;;;;;8.20;82.10;;;;;;6172935;23;19951;-79
2022/04/25 02:19:03;;;;;;;;;;;8.30;82.60;;;;;;6215680;23;19984;-76
2022/04/25 02:21:34;;;;;;;;;;;8.10;82.30;;;;;;6184028;23;19931;-81
2022/04/25 02:24:11;;;;;;;;;;;8.10;82.00;;;;;;6164909;23;19912;-81
2022/04/25 02:26:39;;;;;;;;;;;8.10;82.10;;;;;;6189298;23;20337;-81
2022/04/25 02:29:05;;;;;;;;;;;8.00;82.80;;;;;;6165224;23;19912;-80
2022/04/25 02:31:36;;;;;;;;;;;8.00;83.00;;;;;;6165450;23;19911;-80
2022/04/25 02:34:08;;;;;;;;;;;8.00;82.70;;;;;;6163919;23;19920;-80
2022/04/25 02:36:45;;;;;;;;;;;7.90;82.40;;;;;;6188863;23;20373;-80
2022/04/25 02:39:13;;;;;;;;;;;8.00;82.30;;;;;;6166197;23;19911;-80
2022/04/25 02:41:39;;;;;;;;;;;7.90;82.10;;;;;;6186397;23;20315;-80
2022/04/25 02:44:14;;;;;;;;;;;7.90;81.80;;;;;;6164462;23;19922;-80
2022/04/25 02:46:44;;;;;;;;;;;8.30;82.20;;;;;;6189908;23;19923;-80
2022/04/25 02:49:24;;;;;;;;;;;7.80;82.40;;;;;;6165457;23;19916;-80
2022/04/25 02:51:55;;;;;;;;;;;7.90;82.00;;;;;;6165657;23;19970;-81
2022/04/25 02:54:32;;;;;;;;;;;7.70;82.00;;;;;;6164380;23;19915;-80
2022/04/25 02:57:03;;;;;;;;;;;7.60;82.50;;;;;;6140462;23;19990;-81
2022/04/25 02:59:32;;;;;;;;;;;7.60;83.30;;;;;;6189264;23;19947;-80
2022/04/25 03:02:06;;;;;;;;;;;7.70;83.60;;;;;;6164245;23;19912;-80
2022/04/25 03:04:47;;;;;;;;;;;7.40;83.30;;;;;;6163257;23;19924;-81
2022/04/25 03:07:15;;;;;;;;;;;7.30;84.30;;;;;;6164251;23;19916;-80
2022/04/25 03:09:47;;;;;;;;;;;7.60;84.40;;;;;;6189539;23;19919;-80
2022/04/25 03:12:12;;;;;;;;;;;7.30;84.40;;;;;;6189135;23;19943;-80
2022/04/25 03:14:43;;;;;;;;;;;7.30;85.50;;;;;;6164142;23;20423;-80
2022/04/25 03:17:09;;;;;;;;;;;7.20;85.50;;;;;;6164443;23;20345;-80
2022/04/25 03:19:44;;;;;;;;;;;7.30;85.20;;;;;;6164696;23;19966;-80
2022/04/25 03:22:15;;;;;;;;;;;7.30;86.40;;;;;;6189358;23;19919;-79
2022/04/25 03:24:46;;;;;;;;;;;7.30;85.60;;;;;;6189280;23;20265;-80
2022/04/25 03:27:24;;;;;;;;;;;7.50;85.60;;;;;;6164507;23;20242;-81
2022/04/25 03:29:59;;;;;;;;;;;7.70;85.30;;;;;;6164966;23;20019;-80
2022/04/25 03:32:31;;;;;;;;;;;7.50;84.70;;;;;;6189271;23;19958;-81
2022/04/25 03:34:57;;;;;;;;;;;7.70;85.60;;;;;;6199774;23;19956;-82
2022/04/25 03:37:36;;;;;;;;;;;7.90;85.10;;;;;;6180281;23;19922;-76
2022/04/25 03:40:04;;;;;;;;;;;7.70;85.40;;;;;;6191736;23;19960;-81
2022/04/25 03:42:36;;;;;;;;;;;7.80;85.50;;;;;;6176993;23;19912;-81
2022/04/25 03:45:16;;;;;;;;;;;7.80;84.80;;;;;;6165878;23;19934;-81
2022/04/25 03:47:53;;;;;;;;;;;8.00;85.20;;;;;;6185838;23;19900;-81
2022/04/25 03:50:26;;;;;;;;;;;8.50;85.70;;;;;;6193289;23;19915;-81
2022/04/25 03:52:54;;;;;;;;;;;7.90;85.20;;;;;;6169265;23;19947;-82
2022/04/25 03:58:12;;;;;;;;;;;7.90;85.20;;;;;;6188652;23;19911;-82
2022/04/25 04:00:46;;;;;;;;;;;7.90;85.30;;;;;;6164511;23;19938;-82
2022/04/25 04:03:20;;;;;;;;;;;7.80;84.70;;;;;;6163742;23;20054;-80
2022/04/25 04:05:49;;;;;;;;;;;8.00;84.60;;;;;;6164757;23;20030;-81
2022/04/25 04:08:15;;;;;;;;;;;8.00;84.00;;;;;;6164291;23;19912;-80
2022/04/25 04:10:49;;;;;;;;;;;8.00;84.50;;;;;;6165717;23;19911;-81
2022/04/25 04:13:15;;;;;;;;;;;7.80;83.90;;;;;;6163953;23;19912;-81
2022/04/25 04:15:41;;;;;;;;;;;8.00;83.90;;;;;;6163649;23;19916;-81
2022/04/25 04:18:06;;;;;;;;;;;8.20;84.40;;;;;;6164699;23;19912;-80
2022/04/25 04:20:54;;;;;;;;;;;8.10;83.40;;;;;;6166047;23;19916;-79
2022/04/25 04:23:19;;;;;;;;;;;8.10;83.80;;;;;;6190619;23;19916;-79
2022/04/25 04:25:45;;;;;;;;;;;8.10;83.60;;;;;;6191403;23;19916;-80
2022/04/25 04:28:11;;;;;;;;;;;8.10;84.00;;;;;;6166005;23;19911;-84
2022/04/25 04:30:36;;;;;;;;;;;8.40;84.10;;;;;;6166422;23;19912;-80
2022/04/25 04:33:05;;;;;;;;;;;8.30;84.00;;;;;;6190848;23;20314;-80
2022/04/25 04:38:46;;;;;;;;;;;8.10;83.80;;;;;;6169757;23;20238;-77
2022/04/25 04:41:47;;;;;;;;;;;8.10;84.10;;;;;;6166847;23;19919;-77
2022/04/25 04:44:41;;;;;;;;;;;8.10;83.60;;;;;;6151520;23;19912;-77
2022/04/25 04:51:20;;;;;;;;;;;8.10;83.00;;;;;;6139972;23;19951;-77
2022/04/25 04:54:30;;;;;;;;;;;8.10;83.30;;;;;;6187001;23;20311;-74
2022/04/25 04:57:19;;;;;;;;;;;8.00;82.20;;;;;;6148348;23;19954;-74
2022/04/25 05:00:29;;;;;;;;;;;;;;;;;;;;;
2022/04/25 05:10:04;;;;;;;;;;;;;;;;;;;;;
2022/04/25 05:13:41;;;;;;;;;;;;;;;;;;;;;
2022/04/25 05:17:00;;;;;;;;;;;;;;;;;;;;;
2022/04/25 05:20:29;;;;;;;;;;;8.30;82.40;;;;;;6056809;23;19921;-77
2022/04/25 05:26:54;;;;;;;;;;;8.10;82.90;;;;;;5981900;23;19925;-77
2022/04/25 05:29:39;;;;;;;;;;;8.10;83.00;;;;;;5982667;23;20286;-77
2022/04/25 05:32:28;;;;;;;;;;;8.10;83.10;;;;;;5925453;24;20384;-77
2022/04/25 05:45:57;;;;;;;;;;;;;;;;;;;;;
2022/04/25 05:55:28;;;;;;;;;;;8.20;82.60;;;;;;6002080;23;19913;-77
2022/04/25 05:58:41;;;;;;;;;;;;;;;;;;;;;
2022/04/25 06:04:57;;;;;;;;;;;8.20;82.30;;;;;;6048340;23;19918;-77
2022/04/25 06:08:23;;;;;;;;;;;;;;;;;;;;;
2022/04/25 06:11:35;;;;;;;;;;;8.30;82.30;;;;;;5914928;24;20315;-77
2022/04/25 06:14:28;;;;;;;;;;;8.30;82.50;;;;;;5944367;23;19914;-77
2022/04/25 06:17:13;;;;;;;;;;;8.40;81.90;;;;;;6070570;23;19917;-77
2022/04/25 06:23:38;;;;;;;;;;;8.50;80.90;;;;;;6037019;23;19925;-77
2022/04/25 06:27:08;;;;;;;;;;;8.40;80.70;;;;;;5945014;23;20233;-77
2022/04/25 06:29:57;;;;;;;;;;;8.60;80.90;;;;;;6013275;23;19918;-77
2022/04/25 06:33:00;;;;;;;;;;;8.70;80.50;;;;;;5974116;23;19918;-77
2022/04/25 06:35:52;;;;;;;;;;;8.80;80.70;;;;;;6013489;23;19988;-77
2022/04/25 06:39:02;;;;;;;;;;;8.70;80.30;;;;;;6048125;23;19925;-77
2022/04/25 06:41:53;;;;;;;;;;;8.70;80.00;;;;;;6069417;23;19980;-77
2022/04/25 06:44:39;;;;;;;;;;;8.70;80.60;;;;;;6069941;23;20018;-77
2022/04/25 06:47:36;;;;;;;;;;;8.90;81.10;;;;;;6073635;23;19920;-77
2022/04/25 06:50:55;;;;;;;;;;;8.90;80.60;;;;;;6079774;23;20323;-77
2022/04/25 06:54:03;;;;;;;;;;;;;;;;;;;;;
2022/04/25 07:04:37;;;;;;;;;;;9.00;79.30;;;;;;6093009;23;19913;-77
2022/04/25 07:07:39;;;;;;;;;;;9.00;80.30;;;;;;5979606;23;20330;-77
2022/04/25 07:10:55;;;;;;;;;;;;;;;;;;;;;
2022/04/25 07:13:48;;;;;;;;;;;9.10;80.20;;;;;;5956315;24;19918;-79
2022/04/25 07:16:14;;;;;;;;;;;9.20;80.00;;;;;;5957590;23;19925;-79
2022/04/25 07:18:43;;;;;;;;;;;9.30;79.80;;;;;;6052754;23;19948;-75
2022/04/25 07:29:34;;;;;;;;;;;9.30;78.90;;;;;;6159518;23;19912;-78
2022/04/25 07:32:00;;;;;;;;;;;9.40;79.60;;;;;;6159567;23;19919;-80
2022/04/25 07:34:28;;;;;;;;;;;9.40;78.20;;;;;;6160706;23;19944;-81
2022/04/25 07:37:00;;;;;;;;;;;9.30;79.20;;;;;;6137319;23;19916;-78
2022/04/25 07:39:26;;;;;;;;;;;9.50;78.00;;;;;;6156562;23;19958;-80
2022/04/25 07:48:49;;;;;;;;;;;9.40;78.30;;;;;;6113421;23;19916;-77
2022/04/25 07:51:33;;;;;;;;;;;9.50;77.60;;;;;;6058220;23;19960;-74
2022/04/25 07:54:22;;;;;;;;;;;9.60;77.80;;;;;;6072475;23;19917;-78
2022/04/25 07:56:47;;;;;;;;;;;9.70;77.90;;;;;;6160359;23;20306;-78
2022/04/25 08:09:50;;;;;;;;;;;;;;;;;;;;;
2022/04/25 08:26:21;;;;;;;;;;;;;;;;;;;;;
2022/04/25 08:29:14;;;;;;;;;;;10.60;74.80;;;;;;5906823;24;20284;-74
2022/04/25 08:32:01;;;;;;;;;;;10.40;75.00;;;;;;5926806;24;19922;-74
2022/04/25 08:38:02;;;;;;;;;;;10.20;74.80;;;;;;6002605;23;19928;-75
2022/04/25 08:41:00;;;;;;;;;;;10.30;75.10;;;;;;6052561;23;20339;-76
2022/04/25 08:46:58;;;;;;;;;;;11.30;73.20;;;;;;6147257;23;19923;-76
2022/04/25 08:49:57;;;;;;;;;;;11.40;70.90;;;;;;6187342;23;19923;-76
2022/04/25 08:52:53;;;;;;;;;;;11.30;70.60;;;;;;6186606;23;20014;-76
2022/04/25 08:55:39;;;;;;;;;;;11.30;70.30;;;;;;6159420;23;19947;-75
2022/04/25 08:58:17;;;;;;;;;;;11.40;70.80;;;;;;6128437;23;19923;-76
2022/04/25 09:00:43;;;;;;;;;;;11.30;70.90;;;;;;6159959;23;19938;-75
2022/04/25 09:03:26;;;;;;;;;;;11.40;70.70;;;;;;6157269;23;20331;-75
2022/04/25 09:06:13;;;;;;;;;;;;;;;;;;;;;
2022/04/25 09:08:44;;;;;;;;;;;11.30;70.30;;;;;;6160487;23;19920;-75
2022/04/25 09:14:22;;;;;;;;;;;11.10;70.80;;;;;;6160421;23;19920;-75
2022/04/25 09:17:03;;;;;;;;;;;11.20;70.00;;;;;;6160449;23;19923;-75
2022/04/25 09:19:38;;;;;;;;;;;11.40;70.00;;;;;;6160271;23;19916;-75
2022/04/25 09:22:21;;;;;;;;;;;11.40;69.60;;;;;;6160443;23;19916;-74
2022/04/25 09:24:49;;;;;;;;;;;11.40;69.90;;;;;;6160164;23;19954;-78
2022/04/25 09:27:52;;;;;;;;;;;11.60;70.70;;;;;;6160625;23;19917;-74
2022/04/25 09:30:22;;;;;;;;;;;11.40;69.70;;;;;;6136118;23;19982;-77
2022/04/25 09:32:48;;;;;;;;;;;11.50;71.00;;;;;;6160576;23;20277;-76
2022/04/25 09:35:32;;;;;;;;;;;11.70;71.10;;;;;;6160586;23;19923;-77
2022/04/25 09:38:00;;;;;;;;;;;12.00;70.80;;;;;;6136215;23;19920;-76
2022/04/25 09:40:28;;;;;;;;;;;12.10;70.70;;;;;;6189308;23;20338;-76
2022/04/25 09:43:14;;;;;;;;;;;12.40;71.00;;;;;;6165367;23;19912;-77
2022/04/25 09:45:42;;;;;;;;;;;12.50;69.10;;;;;;6164958;23;19954;-77
2022/04/25 09:48:18;;;;;;;;;;;12.50;67.80;;;;;;6189939;23;19912;-77
2022/04/25 09:50:58;;;;;;;;;;;12.20;67.60;;;;;;6189574;23;20331;-78
2022/04/25 09:53:38;;;;;;;;;;;12.10;68.80;;;;;;6166479;23;19912;-76
2022/04/25 09:56:12;;;;;;;;;;;11.80;68.00;;;;;;6192134;23;19964;-75
2022/04/25 09:58:40;;;;;;;;;;;12.00;68.60;;;;;;6191784;23;19911;-74
2022/04/25 10:01:25;;;;;;;;;;;12.20;68.30;;;;;;6180372;23;19927;-80
2022/04/25 10:04:02;;;;;;;;;;;12.60;68.90;;;;;;6189805;23;19944;-78
2022/04/25 10:06:32;;;;;;;;;;;12.60;67.80;;;;;;6187751;23;19922;-82
2022/04/25 10:08:59;;;;;;;;;;;12.40;66.80;;;;;;6164566;23;19926;-81
2022/04/25 10:11:32;;;;;;;;;;;12.20;66.80;;;;;;6164928;23;19919;-81
2022/04/25 10:13:58;;;;;;;;;;;12.00;67.70;;;;;;6162926;23;19935;-79
2022/04/25 10:16:31;;;;;;;;;;;11.90;69.20;;;;;;6164789;23;20322;-79
2022/04/25 10:18:57;;;;;;;;;;;11.80;68.90;;;;;;6188933;23;19912;-79
2022/04/25 10:21:24;;;;;;;;;;;11.90;68.90;;;;;;6164760;23;19911;-82
2022/04/25 10:23:52;;;;;;;;;;;11.60;69.10;;;;;;6166444;23;19987;-79
2022/04/25 10:26:25;;;;;;;;;;;11.50;70.60;;;;;;6165297;23;20311;-82
2022/04/25 10:28:57;;;;;;;;;;;11.60;69.60;;;;;;6164896;23;19912;-80
2022/04/25 10:31:31;;;;;;;;;;;11.40;69.10;;;;;;6164067;23;19939;-80
2022/04/25 10:34:02;;;;;;;;;;;11.30;68.70;;;;;;6164823;23;19912;-82
2022/04/25 10:36:39;;;;;;;;;;;11.40;69.50;;;;;;6164513;23;19966;-80
2022/04/25 10:39:27;;;;;;;;;;;11.60;69.30;;;;;;6188519;23;19912;-80
2022/04/25 10:45:35;;;;;;;;;;;11.70;70.10;;;;;;6216239;23;19911;-79
2022/04/25 10:58:19;;;;;;;;;;;12.30;68.50;;;;;;6153344;23;19923;-76
2022/04/25 11:08:18;;;;;;;;;;;;;;;;;;;;;
2022/04/25 11:15:09;;;;;;;;;;;;;;;;;;;;;
2022/04/25 11:42:27;;;;;;;;;;;13.00;67.50;;;;;;6052608;23;19912;-81
2022/04/25 11:45:17;;;;;;;;;;;13.10;65.60;;;;;;6046733;23;19928;-78
2022/04/25 11:48:18;;;;;;;;;;;13.20;65.70;;;;;;6038284;23;19914;-78
2022/04/25 11:51:43;;;;;;;;;;;13.20;65.10;;;;;;6017276;23;19914;-77
2022/04/25 12:01:52;;;;;;;;;;;;;;;;;;;;;
2022/04/25 12:04:59;;;;;;;;;;;;;;;;;;;;;
2022/04/25 12:17:21;;;;;;;;;;;13.20;64.00;;;;;;5982747;23;20360;-78
2022/04/25 12:20:08;;;;;;;;;;;13.30;65.00;;;;;;6062603;23;19949;-77
2022/04/25 12:26:29;;;;;;;;;;;;;;;;;;;;;
2022/04/25 12:29:17;;;;;;;;;;;13.90;63.00;;;;;;6149457;23;19982;-80
2022/04/25 12:31:59;;;;;;;;;;;;;;;;;;;;;
2022/04/25 12:35:01;;;;;;;;;;;13.50;62.10;;;;;;6154458;23;19917;-77
2022/04/25 12:41:05;;;;;;;;;;;13.50;62.70;;;;;;6165587;23;19916;-77
2022/04/25 12:51:33;;;;;;;;;;;13.60;60.20;;;;;;6009869;23;19917;-77
2022/04/25 13:14:07;;;;;;;;;;;14.10;58.00;;;;;;5982681;24;20004;-77
2022/04/25 13:17:17;;;;;;;;;;;14.10;57.70;;;;;;6013857;23;19917;-77
2022/04/25 14:05:59;;;;;;;;;;;13.90;56.90;;;;;;6152849;23;20287;-75
2022/04/25 14:08:26;;;;;;;;;;;13.80;59.20;;;;;;6104928;23;19913;-76
2022/04/25 14:11:16;;;;;;;;;;;;;;;;;;;;;
2022/04/25 14:13:55;;;;;;;;;;;14.30;56.60;;;;;;6153887;23;19968;-76
2022/04/25 14:19:46;;;;;;;;;;;14.40;54.30;;;;;;6124068;23;19911;-73
2022/04/25 14:22:14;;;;;;;;;;;14.20;55.40;;;;;;6075290;23;19991;-74
2022/04/25 14:54:49;;;;;;;;;;;13.10;59.30;;;;;;6099278;23;20356;-74
2022/04/25 15:04:50;;;;;;;;;;;;;;;;;;;;;
2022/04/25 15:11:36;;;;;;;;;;;13.80;59.10;;;;;;6041586;23;19913;-74
2022/04/25 15:31:50;;;;;;;;;;;15.10;53.80;;;;;;6008145;23;19907;-74
2022/04/25 15:34:18;;;;;;;;;;;15.10;53.00;;;;;;6031412;23;19917;-74
2022/04/25 15:36:46;;;;;;;;;;;15.30;53.10;;;;;;6134718;23;19919;-72
2022/04/25 15:39:12;;;;;;;;;;;15.60;51.30;;;;;;6133346;23;19912;-73
2022/04/25 15:41:37;;;;;;;;;;;15.50;51.60;;;;;;6158091;23;19912;-74
2022/04/25 15:44:03;;;;;;;;;;;15.50;50.70;;;;;;6159140;23;19917;-73
2022/04/25 15:46:28;;;;;;;;;;;15.40;52.40;;;;;;6159784;23;19996;-71
2022/04/25 15:48:54;;;;;;;;;;;15.10;52.80;;;;;;6159802;23;20367;-72
2022/04/25 15:51:20;;;;;;;;;;;15.30;51.20;;;;;;6157824;23;19936;-77
2022/04/25 15:59:14;;;;;;;;;;;15.50;50.30;;;;;;6158849;23;19987;-79
2022/04/25 16:01:39;;;;;;;;;;;15.60;49.40;;;;;;6162974;23;19916;-77
2022/04/25 16:04:05;;;;;;;;;;;15.70;49.10;;;;;;6138250;23;19991;-77
2022/04/25 16:06:31;;;;;;;;;;;15.60;46.80;;;;;;6133486;23;19967;-79
2022/04/25 16:08:57;;;;;;;;;;;15.30;47.70;;;;;;6134240;23;19916;-77
2022/04/25 16:11:22;;;;;;;;;;;14.90;47.50;;;;;;6133865;23;19986;-76
2022/04/25 16:13:48;;;;;;;;;;;14.50;48.10;;;;;;6134324;23;19952;-78
2022/04/25 16:16:14;;;;;;;;;;;14.10;48.30;;;;;;6165466;23;19916;-76
2022/04/25 16:18:41;;;;;;;;;;;13.40;49.70;;;;;;6164566;23;19920;-75
2022/04/25 16:21:07;;;;;;;;;;;13.10;49.70;;;;;;6160393;23;20282;-79
2022/04/25 16:23:32;;;;;;;;;;;12.80;51.10;;;;;;6160176;23;19924;-74
2022/04/25 16:26:05;;;;;;;;;;;12.60;53.10;;;;;;6136554;23;19916;-76
2022/04/25 16:28:33;;;;;;;;;;;12.50;53.80;;;;;;6142670;23;19916;-72
2022/04/25 16:30:59;;;;;;;;;;;12.20;52.00;;;;;;6138741;23;19999;-74
2022/04/25 16:33:25;;;;;;;;;;;12.10;53.80;;;;;;6150192;23;19920;-74
2022/04/25 16:35:51;;;;;;;;;;;12.00;55.00;;;;;;6166095;23;20240;-79
2022/04/25 16:38:17;;;;;;;;;;;12.00;53.90;;;;;;6159429;23;19916;-77
2022/04/25 16:40:42;;;;;;;;;;;11.90;55.40;;;;;;6158499;23;20205;-78
2022/04/25 16:43:09;;;;;;;;;;;11.60;55.30;;;;;;6158700;23;19987;-78
2022/04/25 16:45:35;;;;;;;;;;;11.60;56.60;;;;;;6158886;23;20341;-77
2022/04/25 16:48:01;;;;;;;;;;;11.60;55.90;;;;;;6134092;23;19951;-78
2022/04/25 16:50:26;;;;;;;;;;;11.40;56.40;;;;;;6158590;23;19923;-76
2022/04/25 16:52:55;;;;;;;;;;;11.30;56.30;;;;;;6134245;23;19923;-79
2022/04/25 16:55:21;;;;;;;;;;;11.20;57.50;;;;;;6133716;23;20208;-76
2022/04/25 16:57:46;;;;;;;;;;;11.10;56.80;;;;;;6131814;23;19974;-78
2022/04/25 17:00:12;;;;;;;;;;;11.10;56.90;;;;;;6159427;23;19916;-76
2022/04/25 17:02:39;;;;;;;;;;;11.00;58.80;;;;;;6134434;23;20306;-77
2022/04/25 17:05:05;;;;;;;;;;;10.90;57.40;;;;;;6160293;23;20342;-75
2022/04/25 17:07:31;;;;;;;;;;;10.90;56.70;;;;;;6160317;23;20035;-76
2022/04/25 17:09:57;;;;;;;;;;;10.80;56.50;;;;;;6135230;23;20294;-79
2022/04/25 17:12:25;;;;;;;;;;;10.80;56.30;;;;;;6160044;23;19917;-79
2022/04/25 17:14:51;;;;;;;;;;;10.70;57.50;;;;;;6135696;23;19995;-77
2022/04/25 17:17:19;;;;;;;;;;;10.50;57.20;;;;;;6135482;23;20005;-74
2022/04/25 17:19:45;;;;;;;;;;;10.50;57.00;;;;;;6160388;23;19917;-74
2022/04/25 17:22:11;;;;;;;;;;;10.50;57.70;;;;;;6159201;23;19963;-77
2022/04/25 17:24:37;;;;;;;;;;;10.50;58.50;;;;;;6135057;23;19923;-75
2022/04/25 17:27:03;;;;;;;;;;;10.40;59.60;;;;;;6135824;23;19940;-75
2022/04/25 17:29:28;;;;;;;;;;;10.40;60.10;;;;;;6159578;23;19919;-78
